Latest Weather Observations for Sellicks Hill

IDS60801

Issued at 5:01 am CDT Tuesday 19 January 2021 (issued every 10 minutes, with the page automatically refreshed every 10 minutes)

About weather observations | Map of weather stations | Latest weather observations for SA | Other Formats
Station Details ID: 023886 Name: MOUNT TERRIBLE RADAR Lat: -35.33 Lon: 138.50 Height: 385.7 m
Data from the previous 72 hours. | See also: Recent months at Sellicks Hill
Date/Time
CDT
Temp
°C
App
Temp
°C
Dew
Point
°C
Rel
Hum
%
Delta-T
°C
Wind Press
QNH
hPa
Press
MSL
hPa
Rain since
9am
mm
Dir  Spd
km/h
Gust
km/h
Spd
kts
Gust
kts
19/05:00am - - - - - SSE 32 43 17 23 - - -
19/04:30am - - - - - SSE 33 41 18 22 - - -
19/04:00am - - - - - SSE 41 48 22 26 - - -
19/03:30am - - - - - SSE 37 50 20 27 - - -
19/03:00am - - - - - SSE 33 43 18 23 - - -
19/02:30am - - - - - SSE 39 46 21 25 - - -
19/02:00am - - - - - SSE 41 50 22 27 - - -
19/01:30am - - - - - SSE 35 44 19 24 - - -
19/01:00am - - - - - SSE 39 50 21 27 - - -
19/12:30am - - - - - SSE 44 54 24 29 - - -
19/12:00am - - - - - SSE 39 50 21 27 - - -
 
Date/Time
CDT
Temp
°C
App
Temp
°C
Dew
Point
°C
Rel
Hum
%
Delta-T
°C
Wind Press
QNH
hPa
Press
MSL
hPa
Rain since
9am
mm
Dir  Spd
km/h
Gust
km/h
Spd
kts
Gust
kts
18/11:30pm - - - - - SSE 46 57 25 31 - - -
18/11:00pm - - - - - SSE 44 54 24 29 - - -
18/10:30pm - - - - - SSE 46 54 25 29 - - -
18/10:00pm - - - - - SSE 43 52 23 28 - - -
18/09:30pm - - - - - SSE 44 54 24 29 - - -
18/09:00pm - - - - - SSE 48 57 26 31 - - -
18/08:30pm - - - - - SSE 44 56 24 30 - - -
18/08:00pm - - - - - SSE 41 50 22 27 - - -
18/07:30pm - - - - - SSE 41 50 22 27 - - -
18/07:00pm - - - - - S 33 48 18 26 - - -
18/06:30pm - - - - - S 35 44 19 24 - - -
18/06:00pm - - - - - S 28 44 15 24 - - -
18/05:30pm - - - - - S 24 39 13 21 - - -
18/05:00pm - - - - - S 30 41 16 22 - - -
18/04:30pm - - - - - S 19 32 10 17 - - -
18/04:00pm - - - - - S 15 30 8 16 - - -
18/03:30pm - - - - - S 19 28 10 15 - - -
18/03:00pm - - - - - S 13 24 7 13 - - -
18/02:30pm - - - - - S 15 30 8 16 - - -
18/02:00pm - - - - - S 15 30 8 16 - - -
18/01:30pm - - - - - SSE 20 30 11 16 - - -
18/01:00pm - - - - - SSE 24 32 13 17 - - -
18/12:30pm - - - - - S 22 32 12 17 - - -
18/12:00pm - - - - - S 19 28 10 15 - - -
18/11:30am - - - - - SSE 22 32 12 17 - - -
18/11:00am - - - - - S 26 35 14 19 - - -
18/10:30am - - - - - SSE 26 33 14 18 - - -
18/10:00am - - - - - SSE 24 32 13 17 - - -
18/09:30am - - - - - SSE 26 33 14 18 - - -
18/09:00am - - - - - SSE 28 33 15 18 - - -
18/08:30am - - - - - SSE 26 35 14 19 - - -
18/08:00am - - - - - SSE 28 39 15 21 - - -
18/07:30am - - - - - SSE 28 39 15 21 - - -
18/07:00am - - - - - SSE 26 30 14 16 - - -
18/06:30am - - - - - SSE 26 32 14 17 - - -
18/06:00am - - - - - SSE 26 33 14 18 - - -
18/05:30am - - - - - SSE 30 33 16 18 - - -
18/05:00am - - - - - SSE 32 39 17 21 - - -
18/04:30am - - - - - SSE 30 39 16 21 - - -
18/04:00am - - - - - SSE 28 35 15 19 - - -
18/03:30am - - - - - SSE 19 26 10 14 - - -
18/03:00am - - - - - SSE 26 32 14 17 - - -
18/02:30am - - - - - SSE 28 35 15 19 - - -
18/02:00am - - - - - SSE 22 28 12 15 - - -
18/01:30am - - - - - SSE 22 33 12 18 - - -
18/01:00am - - - - - SSE 28 37 15 20 - - -
18/12:30am - - - - - SSE 22 37 12 20 - - -
18/12:00am - - - - - SSE 24 32 13 17 - - -
 
Date/Time
CDT
Temp
°C
App
Temp
°C
Dew
Point
°C
Rel
Hum
%
Delta-T
°C
Wind Press
QNH
hPa
Press
MSL
hPa
Rain since
9am
mm
Dir  Spd
km/h
Gust
km/h
Spd
kts
Gust
kts
17/11:30pm - - - - - SSE 24 32 13 17 - - -
17/11:00pm - - - - - SSE 30 39 16 21 - - -
17/10:30pm - - - - - SSE 32 41 17 22 - - -
17/10:00pm - - - - - SSE 28 37 15 20 - - -
17/09:30pm - - - - - SSE 32 43 17 23 - - -
17/09:00pm - - - - - SSE 32 43 17 23 - - -
17/08:30pm - - - - - SSE 35 43 19 23 - - -
17/08:00pm - - - - - S 30 37 16 20 - - -
17/07:30pm - - - - - S 24 35 13 19 - - -
17/07:00pm - - - - - S 24 33 13 18 - - -
17/06:30pm - - - - - S 22 35 12 19 - - -
17/06:00pm - - - - - SSE 32 41 17 22 - - -
17/05:30pm - - - - - SSE 30 37 16 20 - - -
17/05:00pm - - - - - SSE 22 30 12 16 - - -
17/04:30pm - - - - - S 11 22 6 12 - - -
17/04:00pm - - - - - SSW 7 17 4 9 - - -
17/03:30pm - - - - - SSW 7 13 4 7 - - -
17/03:00pm - - - - - SSE 13 20 7 11 - - -
17/02:30pm - - - - - SSE 13 19 7 10 - - -
17/02:00pm - - - - - SSW 9 19 5 10 - - -
17/01:30pm - - - - - SSE 17 22 9 12 - - -
17/01:00pm - - - - - SW 4 9 2 5 - - -
17/12:30pm - - - - - S 11 22 6 12 - - -
17/12:00pm - - - - - S 15 26 8 14 - - -
17/11:30am - - - - - S 13 20 7 11 - - -
17/11:00am - - - - - NNW 4 6 2 3 - - -
17/10:30am - - - - - SSW 4 9 2 5 - - -
17/10:00am - - - - - SSW 4 7 2 4 - - -
17/09:30am - - - - - SW 6 11 3 6 - - -
17/09:00am - - - - - W 4 7 2 4 - - -
17/08:30am - - - - - SW 4 7 2 4 - - -
17/08:00am - - - - - S 7 15 4 8 - - -
17/07:30am - - - - - S 6 11 3 6 - - -
17/07:00am - - - - - SSW 6 9 3 5 - - -
17/06:30am - - - - - SSW 4 9 2 5 - - -
17/06:00am - - - - - S 6 7 3 4 - - -
17/05:30am - - - - - S 7 11 4 6 - - -
17/05:00am - - - - - S 9 13 5 7 - - -
17/04:30am - - - - - S 9 13 5 7 - - -
17/04:00am - - - - - SSW 4 6 2 3 - - -
17/03:30am - - - - - SSW 6 15 3 8 - - -
17/03:00am - - - - - S 7 15 4 8 - - -
17/02:30am - - - - - S 11 17 6 9 - - -
17/02:00am - - - - - S 7 11 4 6 - - -
17/01:30am - - - - - S 7 13 4 7 - - -
17/01:00am - - - - - S 9 13 5 7 - - -
17/12:30am - - - - - SSW 4 11 2 6 - - -
17/12:00am - - - - - S 11 20 6 11 - - -
 
Date/Time
CDT
Temp
°C
App
Temp
°C
Dew
Point
°C
Rel
Hum
%
Delta-T
°C
Wind Press
QNH
hPa
Press
MSL
hPa
Rain since
9am
mm
Dir  Spd
km/h
Gust
km/h
Spd
kts
Gust
kts
16/11:30pm - - - - - S 9 17 5 9 - - -
16/11:00pm - - - - - SSE 22 30 12 16 - - -
16/10:30pm - - - - - S 24 32 13 17 - - -
16/10:00pm - - - - - S 28 33 15 18 - - -
16/09:30pm - - - - - S 22 30 12 16 - - -
16/09:00pm - - - - - S 22 32 12 17 - - -
16/08:30pm - - - - - S 24 33 13 18 - - -
16/08:00pm - - - - - S 19 30 10 16 - - -
16/07:30pm - - - - - S 22 32 12 17 - - -
16/07:00pm - - - - - S 22 35 12 19 - - -
16/06:30pm - - - - - SSE 28 41 15 22 - - -
16/06:00pm - - - - - S 22 39 12 21 - - -
16/05:30pm - - - - - S 22 41 12 22 - - -
16/05:00pm - - - - - S 19 33 10 18 - - -
16/04:30pm - - - - - S 19 33 10 18 - - -
16/04:00pm - - - - - S 15 32 8 17 - - -
16/03:30pm - - - - - SSW 9 19 5 10 - - -
16/03:00pm - - - - - S 19 32 10 17 - - -
16/02:30pm - - - - - S 17 32 9 17 - - -
16/02:00pm - - - - - S 15 30 8 16 - - -
16/01:30pm - - - - - S 15 26 8 14 - - -
16/01:00pm - - - - - SSW 11 24 6 13 - - -
16/12:30pm - - - - - S 17 30 9 16 - - -
16/12:00pm - - - - - S 13 24 7 13 - - -
16/11:30am - - - - - S 15 26 8 14 - - -
16/11:00am - - - - - S 13 24 7 13 - - -
16/10:30am - - - - - S 15 26 8 14 - - -
16/10:00am - - - - - S 15 26 8 14 - - -
16/09:30am - - - - - S 13 33 7 18 - - -
16/09:00am - - - - - S 15 26 8 14 - - -
16/08:30am - - - - - SSW 7 13 4 7 - - -
16/08:00am - - - - - S 7 15 4 8 - - -
16/07:30am - - - - - SSW 6 13 3 7 - - -
16/07:00am - - - - - SW 4 6 2 3 - - -
16/06:30am - - - - - SSW 2 6 1 3 - - -
16/06:00am - - - - - SSW 4 9 2 5 - - -
16/05:30am - - - - - S 9 19 5 10 - - -

Other formats

Comma delimited format used in spreadsheet applications
http://www.bom.gov.au/fwo/IDS60801/IDS60801.95679.axf

JavaScript Object Notation format (JSON) in row-major order
http://www.bom.gov.au/fwo/IDS60801/IDS60801.95679.json

Data quality

Most of these data are generated automatically and are frequently updated. Quality checks on data are not normally performed. It is possible for incorrect values to appear. Refer to information at About Latest Weather Observations and please check the disclaimer before using these data.